Time;durP1;ratioP1;P1;durP2;ratioP2;P2;SDS_P1;SDS_P2;PMS_P1;PMS_P2;Temp;Humidity;BMP_temperature;BMP_pressure;BME280_temperature;BME280_humidity;BME280_pressure;Samples;Min_cycle;Max_cycle;Signal;HPM_P1;HPM_P2
2023/10/25 00:00:34;;;;;;;16.80;15.20;;;;;;;;;;12634516;23;20021;-71
2023/10/25 00:05:33;;;;;;;18.60;15.77;;;;;;;;;;12635033;23;20021;-71
2023/10/25 00:10:30;;;;;;;18.25;16.33;;;;;;;;;;12634423;23;20104;-71
2023/10/25 00:15:29;;;;;;;17.75;15.63;;;;;;;;;;12636016;23;20024;-69
2023/10/25 00:20:26;;;;;;;17.38;15.77;;;;;;;;;;12638794;23;20016;-68
2023/10/25 00:25:22;;;;;;;17.10;15.40;;;;;;;;;;12638916;23;20024;-68
2023/10/25 00:30:19;;;;;;;18.08;16.33;;;;;;;;;;12637068;23;20021;-69
2023/10/25 00:35:16;;;;;;;18.73;16.92;;;;;;;;;;12632107;23;20618;-68
2023/10/25 00:40:12;;;;;;;18.35;16.70;;;;;;;;;;12636073;23;20021;-68
2023/10/25 00:45:09;;;;;;;22.42;18.35;;;;;;;;;;12637602;23;20291;-68
2023/10/25 00:50:06;;;;;;;20.15;18.08;;;;;;;;;;12637926;23;20481;-67
2023/10/25 00:55:02;;;;;;;22.13;19.77;;;;;;;;;;12637212;23;20074;-70
2023/10/25 01:00:00;;;;;;;19.13;17.27;;;;;;;;;;12636453;23;20028;-69
2023/10/25 01:04:57;;;;;;;19.95;17.85;;;;;;;;;;12636698;23;20048;-69
2023/10/25 01:09:53;;;;;;;24.80;18.88;;;;;;;;;;12637639;23;20020;-68
2023/10/25 01:14:50;;;;;;;21.25;19.15;;;;;;;;;;12636325;23;20051;-68
2023/10/25 01:19:46;;;;;;;24.25;21.05;;;;;;;;;;12637163;23;20029;-68
2023/10/25 01:24:43;;;;;;;24.90;20.40;;;;;;;;;;12636509;23;20031;-70
2023/10/25 01:29:39;;;;;;;27.35;22.23;;;;;;;;;;12636142;23;20068;-69
2023/10/25 01:34:36;;;;;;;23.58;21.08;;;;;;;;;;12636930;23;20096;-69
2023/10/25 01:39:32;;;;;;;23.70;21.38;;;;;;;;;;12655647;23;20087;-69
2023/10/25 01:44:29;;;;;;;28.63;23.30;;;;;;;;;;12636789;23;20020;-69
2023/10/25 01:49:25;;;;;;;30.42;24.83;;;;;;;;;;12636630;23;20108;-69
2023/10/25 01:54:21;;;;;;;24.70;22.13;;;;;;;;;;12636771;23;20413;-69
2023/10/25 01:59:18;;;;;;;23.70;20.73;;;;;;;;;;12634864;23;20024;-68
2023/10/25 02:04:14;;;;;;;26.90;22.95;;;;;;;;;;12636464;23;20033;-68
2023/10/25 02:09:11;;;;;;;26.27;21.35;;;;;;;;;;12636048;23;20025;-68
2023/10/25 02:14:07;;;;;;;27.75;21.63;;;;;;;;;;12635533;23;20023;-69
2023/10/25 02:19:03;;;;;;;22.95;20.70;;;;;;;;;;12635960;23;20091;-69
2023/10/25 02:24:00;;;;;;;26.05;22.40;;;;;;;;;;12634674;23;20028;-69
2023/10/25 02:28:57;;;;;;;24.45;21.90;;;;;;;;;;12636546;23;20024;-69
2023/10/25 02:33:54;;;;;;;27.98;22.23;;;;;;;;;;12636353;23;20729;-68
2023/10/25 02:38:50;;;;;;;25.80;22.85;;;;;;;;;;12635461;23;20044;-68
2023/10/25 02:43:47;;;;;;;23.73;21.00;;;;;;;;;;12629659;23;20035;-68
2023/10/25 02:48:43;;;;;;;26.50;22.42;;;;;;;;;;12636387;23;20614;-68
2023/10/25 02:53:39;;;;;;;25.73;22.60;;;;;;;;;;12633729;23;20822;-68
2023/10/25 02:58:35;;;;;;;25.90;23.17;;;;;;;;;;12636593;23;20027;-69
2023/10/25 03:03:33;;;;;;;24.50;21.63;;;;;;;;;;12634288;23;20035;-69
2023/10/25 03:08:30;;;;;;;28.05;22.42;;;;;;;;;;12635977;23;20086;-69
2023/10/25 03:13:26;;;;;;;26.83;23.52;;;;;;;;;;12633932;23;20020;-70
2023/10/25 03:18:22;;;;;;;27.63;24.15;;;;;;;;;;12635354;23;20126;-70
2023/10/25 03:23:20;;;;;;;31.38;22.85;;;;;;;;;;12627963;23;20025;-68
2023/10/25 03:28:16;;;;;;;31.23;25.73;;;;;;;;;;12633006;23;20024;-68
2023/10/25 03:33:13;;;;;;;25.70;23.02;;;;;;;;;;12629808;23;20762;-69
2023/10/25 03:38:09;;;;;;;32.05;25.42;;;;;;;;;;12634632;23;20043;-69
2023/10/25 03:43:06;;;;;;;32.88;25.67;;;;;;;;;;12633905;23;20052;-69
2023/10/25 03:48:03;;;;;;;30.27;26.23;;;;;;;;;;12617548;23;20017;-70
2023/10/25 03:52:59;;;;;;;32.85;26.48;;;;;;;;;;12633492;23;20020;-71
2023/10/25 03:57:56;;;;;;;31.83;25.85;;;;;;;;;;12627950;23;20033;-70
2023/10/25 04:02:53;;;;;;;29.35;24.90;;;;;;;;;;12631954;23;20079;-70
2023/10/25 04:07:50;;;;;;;26.08;23.30;;;;;;;;;;12631402;23;20025;-71
2023/10/25 04:12:46;;;;;;;30.00;25.20;;;;;;;;;;12633798;23;20025;-71
2023/10/25 04:17:43;;;;;;;31.10;27.33;;;;;;;;;;12632391;23;20028;-71
2023/10/25 04:22:39;;;;;;;36.58;26.63;;;;;;;;;;12629027;23;20078;-71
2023/10/25 04:27:36;;;;;;;28.20;24.42;;;;;;;;;;12633732;23;20678;-70
2023/10/25 04:32:32;;;;;;;28.02;24.42;;;;;;;;;;12633206;23;20052;-69
2023/10/25 04:37:29;;;;;;;30.90;25.70;;;;;;;;;;12632668;23;20102;-69
2023/10/25 04:42:25;;;;;;;28.33;24.10;;;;;;;;;;12632998;23;20040;-69
2023/10/25 04:47:22;;;;;;;26.40;22.88;;;;;;;;;;12632674;23;20028;-70
2023/10/25 04:52:19;;;;;;;29.50;23.63;;;;;;;;;;12626355;23;20024;-70
2023/10/25 04:57:15;;;;;;;27.92;24.58;;;;;;;;;;12631926;23;20401;-69
2023/10/25 05:02:12;;;;;;;28.98;24.05;;;;;;;;;;12629866;23;20021;-72
2023/10/25 05:07:16;;;;;;;31.15;24.63;;;;;;;;;;12649576;22;20039;-73
2023/10/25 05:12:14;;;;;;;27.02;24.13;;;;;;;;;;12632739;23;20075;-72
2023/10/25 05:17:10;;;;;;;30.77;24.15;;;;;;;;;;12634672;23;20029;-72
2023/10/25 05:22:11;;;;;;;29.73;23.60;;;;;;;;;;12632057;23;20082;-72
2023/10/25 05:27:10;;;;;;;29.48;23.27;;;;;;;;;;12654145;22;20107;-72
2023/10/25 05:32:10;;;;;;;30.58;24.00;;;;;;;;;;12637893;23;20039;-73
2023/10/25 05:37:07;;;;;;;29.55;24.45;;;;;;;;;;12638046;23;20040;-72
2023/10/25 05:42:04;;;;;;;25.70;22.98;;;;;;;;;;12637755;23;20025;-72
2023/10/25 05:47:00;;;;;;;30.17;22.85;;;;;;;;;;12632282;23;20080;-72
2023/10/25 05:51:57;;;;;;;26.67;21.88;;;;;;;;;;12636908;23;20418;-72
2023/10/25 05:56:54;;;;;;;26.20;22.35;;;;;;;;;;12636680;23;20032;-71
2023/10/25 06:02:07;;;;;;;32.22;23.77;;;;;;;;;;12634658;23;20107;-72
2023/10/25 06:07:04;;;;;;;27.15;21.10;;;;;;;;;;12637607;23;20024;-72
2023/10/25 06:12:01;;;;;;;27.08;22.73;;;;;;;;;;12635945;23;20124;-72
2023/10/25 06:16:58;;;;;;;27.95;22.83;;;;;;;;;;12636800;23;20025;-72
2023/10/25 06:21:55;;;;;;;23.70;21.05;;;;;;;;;;12630853;23;20024;-71
2023/10/25 06:26:51;;;;;;;24.58;21.95;;;;;;;;;;12637287;23;20031;-72
2023/10/25 06:31:50;;;;;;;23.50;21.10;;;;;;;;;;12636433;23;20079;-72
2023/10/25 06:36:48;;;;;;;25.63;21.25;;;;;;;;;;12636123;23;20358;-72
2023/10/25 06:41:44;;;;;;;25.95;22.65;;;;;;;;;;12636273;23;20029;-72
2023/10/25 06:46:42;;;;;;;25.83;23.13;;;;;;;;;;12637160;23;20090;-72
2023/10/25 06:51:38;;;;;;;23.70;20.10;;;;;;;;;;12636686;23;20029;-72
2023/10/25 06:56:35;;;;;;;23.45;21.13;;;;;;;;;;12636982;23;20031;-72
2023/10/25 07:01:34;;;;;;;23.45;20.38;;;;;;;;;;12636832;23;20481;-72
2023/10/25 07:06:30;;;;;;;25.67;21.45;;;;;;;;;;12636508;23;20028;-72
2023/10/25 07:11:27;;;;;;;23.48;21.00;;;;;;;;;;12636467;23;20032;-72
2023/10/25 07:16:23;;;;;;;31.63;22.48;;;;;;;;;;12635251;23;20020;-72
2023/10/25 07:21:20;;;;;;;25.27;21.45;;;;;;;;;;12634704;23;20032;-72
2023/10/25 07:26:16;;;;;;;29.70;20.25;;;;;;;;;;12629474;23;20638;-73
2023/10/25 07:31:12;;;;;;;26.02;20.70;;;;;;;;;;12636261;23;20458;-73
2023/10/25 07:36:11;;;;;;;29.65;22.63;;;;;;;;;;12636004;22;20070;-72
2023/10/25 07:41:08;;;;;;;23.25;20.80;;;;;;;;;;12636362;23;20020;-72
2023/10/25 07:51:36;;;;;;;28.40;21.95;;;;;;;;;;12627712;23;20039;-72
2023/10/25 08:01:38;;;;;;;24.95;19.60;;;;;;;;;;12613570;22;20021;-73
2023/10/25 08:07:06;;;;;;;23.05;20.13;;;;;;;;;;12644484;22;20387;-72
2023/10/25 08:12:03;;;;;;;25.70;19.30;;;;;;;;;;12622944;23;20029;-73
2023/10/25 08:33:10;;;;;;;22.77;19.10;;;;;;;;;;12547502;23;20104;-72
2023/10/25 08:38:07;;;;;;;21.98;19.10;;;;;;;;;;12662136;22;20357;-72
2023/10/25 08:43:03;;;;;;;22.25;19.05;;;;;;;;;;12639605;23;20481;-72
2023/10/25 08:59:54;;;;;;;18.10;16.23;;;;;;;;;;12644152;22;20018;-71
2023/10/25 09:10:19;;;;;;;17.83;16.08;;;;;;;;;;12637362;23;20020;-72
2023/10/25 09:16:03;;;;;;;18.58;16.70;;;;;;;;;;12629908;22;20043;-72
2023/10/25 09:21:00;;;;;;;;;;;;;;;;;;12590054;23;20403;-72
2023/10/25 09:26:14;;;;;;;17.85;15.45;;;;;;;;;;12576873;23;19936;-72
2023/10/25 09:31:26;;;;;;;17.25;15.52;;;;;;;;;;12576254;23;20021;-72
2023/10/25 09:36:50;;;;;;;16.65;14.73;;;;;;;;;;12611073;22;20028;-72
2023/10/25 09:42:38;;;;;;;16.90;15.27;;;;;;;;;;12415856;23;20018;-72
2023/10/25 09:47:38;;;;;;;16.80;14.70;;;;;;;;;;12441178;23;20568;-72
2023/10/25 09:52:35;;;;;;;20.13;15.57;;;;;;;;;;12449330;23;20049;-72
2023/10/25 09:57:32;;;;;;;17.55;14.55;;;;;;;;;;12449616;23;20048;-72
2023/10/25 10:02:55;;;;;;;16.00;14.20;;;;;;;;;;12449517;23;20093;-72
2023/10/25 10:25:00;;;;;;;17.15;14.18;;;;;;;;;;12637083;23;20101;-72
2023/10/25 10:29:56;;;;;;;19.45;13.35;;;;;;;;;;12636923;23;20059;-72
2023/10/25 10:34:56;;;;;;;19.75;12.77;;;;;;;;;;12634391;23;20370;-73
2023/10/25 10:39:56;;;;;;;19.42;12.45;;;;;;;;;;12637191;23;20032;-72
2023/10/25 10:50:40;;;;;;;13.02;11.77;;;;;;;;;;12635465;22;20024;-73
2023/10/25 10:55:37;;;;;;;13.15;11.68;;;;;;;;;;12448434;23;20018;-73
2023/10/25 11:00:33;;;;;;;12.70;11.50;;;;;;;;;;12544180;23;20025;-73
2023/10/25 11:11:12;;;;;;;14.82;10.40;;;;;;;;;;12619934;22;20017;-73
2023/10/25 11:21:23;;;;;;;10.43;9.27;;;;;;;;;;12605402;22;19917;-73
2023/10/25 11:26:19;;;;;;;11.25;8.95;;;;;;;;;;12636030;23;20024;-73
2023/10/25 11:31:16;;;;;;;13.43;9.05;;;;;;;;;;12635992;23;20067;-73
2023/10/25 11:36:14;;;;;;;12.88;9.52;;;;;;;;;;12635579;23;20466;-73
2023/10/25 11:41:11;;;;;;;13.45;9.38;;;;;;;;;;12635392;23;20021;-73
2023/10/25 11:46:07;;;;;;;11.52;8.57;;;;;;;;;;12634187;23;20027;-73
2023/10/25 11:51:04;;;;;;;10.10;9.25;;;;;;;;;;12633952;23;20043;-73
2023/10/25 12:07:20;;;;;;;12.70;8.65;;;;;;;;;;12634661;23;20095;-73
2023/10/25 12:12:17;;;;;;;12.85;9.35;;;;;;;;;;12635803;23;20031;-72
2023/10/25 12:17:40;;;;;;;10.93;8.60;;;;;;;;;;12641904;22;20036;-72
2023/10/25 12:22:36;;;;;;;8.25;7.43;;;;;;;;;;12635256;23;20020;-72
2023/10/25 12:33:14;;;;;;;12.25;7.25;;;;;;;;;;12638844;22;20336;-73
2023/10/25 12:38:28;;;;;;;9.18;6.93;;;;;;;;;;12638635;22;20025;-71
2023/10/25 12:44:17;;;;;;;7.40;6.70;;;;;;;;;;12619071;23;20447;-71
2023/10/25 12:49:37;;;;;;;12.07;7.45;;;;;;;;;;12624184;23;20351;-72
2023/10/25 12:54:33;;;;;;;11.20;7.78;;;;;;;;;;12638626;23;20021;-72
2023/10/25 12:59:29;;;;;;;10.95;7.85;;;;;;;;;;12638371;23;20028;-71
2023/10/25 13:15:47;;;;;;;10.85;7.88;;;;;;;;;;12630890;23;20020;-71
2023/10/25 13:20:47;;;;;;;11.68;8.57;;;;;;;;;;12638963;23;20020;-71
2023/10/25 13:25:43;;;;;;;9.90;8.30;;;;;;;;;;12636520;23;20124;-72
2023/10/25 13:30:39;;;;;;;9.57;8.63;;;;;;;;;;12635534;23;20029;-73
2023/10/25 13:35:36;;;;;;;14.70;8.88;;;;;;;;;;12637520;23;20017;-72
2023/10/25 13:40:32;;;;;;;10.05;9.00;;;;;;;;;;12637841;23;20095;-72
2023/10/25 13:51:13;;;;;;;10.82;9.25;;;;;;;;;;12567562;23;20021;-72
2023/10/25 13:57:07;;;;;;;9.30;8.40;;;;;;;;;;12574484;22;20049;-72
2023/10/25 14:02:03;;;;;;;9.82;9.00;;;;;;;;;;12636104;23;20091;-72
2023/10/25 14:06:59;;;;;;;16.42;8.95;;;;;;;;;;12636643;23;20639;-72
2023/10/25 14:11:56;;;;;;;14.85;9.23;;;;;;;;;;12636276;23;20028;-72
2023/10/25 14:16:52;;;;;;;9.95;8.98;;;;;;;;;;12637118;23;20047;-72
2023/10/25 14:21:48;;;;;;;12.73;9.07;;;;;;;;;;12634225;23;20063;-72
2023/10/25 14:33:00;;;;;;;17.80;9.10;;;;;;;;;;12501183;23;20029;-72
2023/10/25 14:37:56;;;;;;;11.02;8.95;;;;;;;;;;12620945;23;20420;-71
2023/10/25 14:42:54;;;;;;;12.45;10.15;;;;;;;;;;12634937;23;20467;-72
2023/10/25 14:47:52;;;;;;;12.45;9.80;;;;;;;;;;12635705;23;20032;-72
2023/10/25 14:52:48;;;;;;;10.38;9.48;;;;;;;;;;12635214;23;20024;-72
2023/10/25 14:57:44;;;;;;;12.70;11.40;;;;;;;;;;12636377;23;20694;-72
2023/10/25 15:02:41;;;;;;;13.25;11.18;;;;;;;;;;12635564;23;20021;-72
2023/10/25 15:07:47;;;;;;;15.27;12.38;;;;;;;;;;12636479;22;20025;-72
2023/10/25 15:12:44;;;;;;;13.50;12.02;;;;;;;;;;12634499;23;20029;-73
2023/10/25 15:23:26;;;;;;;16.17;13.65;;;;;;;;;;12445797;23;20074;-72
2023/10/25 15:29:02;;;;;;;;;;;;;;;;;;;;;
2023/10/25 15:40:02;;;;;;;15.75;14.23;;;;;;;;;;12566217;23;20017;-72
2023/10/25 15:45:04;;;;;;;15.38;13.75;;;;;;;;;;12575488;23;20021;-73
2023/10/25 15:50:01;;;;;;;16.92;15.27;;;;;;;;;;12575986;23;20017;-72
2023/10/25 16:00:50;;;;;;;15.63;13.55;;;;;;;;;;12621225;22;20052;-72
2023/10/25 16:18:11;;;;;;;15.52;13.93;;;;;;;;;;12552862;23;20699;-72
2023/10/25 16:23:35;;;;;;;18.02;16.05;;;;;;;;;;12622539;23;20017;-72
2023/10/25 16:28:32;;;;;;;21.73;17.00;;;;;;;;;;12634594;23;20029;-71
2023/10/25 16:33:29;;;;;;;19.85;17.75;;;;;;;;;;12608093;23;20033;-71
2023/10/25 16:38:26;;;;;;;20.48;18.45;;;;;;;;;;12634208;23;20103;-72
2023/10/25 16:43:24;;;;;;;20.63;18.73;;;;;;;;;;12633479;23;20029;-71
2023/10/25 16:48:20;;;;;;;23.15;20.60;;;;;;;;;;12605663;23;20025;-71
2023/10/25 16:53:16;;;;;;;24.83;22.10;;;;;;;;;;12626757;23;20056;-72
2023/10/25 16:58:13;;;;;;;24.52;21.15;;;;;;;;;;12604380;23;20359;-72
2023/10/25 17:03:09;;;;;;;22.92;20.73;;;;;;;;;;12635488;23;20024;-72
2023/10/25 17:19:55;;;;;;;26.07;23.37;;;;;;;;;;12693953;22;20339;-72
2023/10/25 17:30:31;;;;;;;;;;;;;;;;;;;;;
2023/10/25 17:36:14;;;;;;;26.95;24.23;;;;;;;;;;12532291;22;20110;-72
2023/10/25 17:41:10;;;;;;;27.27;23.25;;;;;;;;;;12757593;22;20086;-72
2023/10/25 17:46:06;;;;;;;26.42;23.63;;;;;;;;;;12758919;22;20016;-73
2023/10/25 17:51:08;;;;;;;25.02;22.45;;;;;;;;;;12759629;22;20361;-73
2023/10/25 17:56:05;;;;;;;26.00;23.50;;;;;;;;;;12760454;22;20020;-73
2023/10/25 18:01:01;;;;;;;24.95;22.45;;;;;;;;;;12760676;22;20023;-72
2023/10/25 18:06:01;;;;;;;25.65;22.02;;;;;;;;;;12760564;22;20365;-73
2023/10/25 18:10:58;;;;;;;23.73;21.42;;;;;;;;;;12760523;22;20094;-73
2023/10/25 18:15:54;;;;;;;28.17;22.65;;;;;;;;;;12759896;22;20020;-73
2023/10/25 18:20:52;;;;;;;22.10;19.77;;;;;;;;;;12759496;22;20020;-73
2023/10/25 18:25:49;;;;;;;22.88;18.80;;;;;;;;;;12730970;22;20023;-72
2023/10/25 18:30:48;;;;;;;31.25;24.70;;;;;;;;;;12759825;22;20024;-72
2023/10/25 18:36:08;;;;;;;26.50;23.73;;;;;;;;;;12759693;22;20035;-72
2023/10/25 18:41:05;;;;;;;27.73;24.05;;;;;;;;;;12760360;22;20406;-73
2023/10/25 18:52:02;;;;;;;26.75;24.05;;;;;;;;;;12622077;23;20028;-72
2023/10/25 18:56:58;;;;;;;25.45;22.88;;;;;;;;;;12634163;23;20024;-72
2023/10/25 19:01:58;;;;;;;26.42;23.70;;;;;;;;;;12635069;23;20024;-73
2023/10/25 19:06:55;;;;;;;27.60;24.85;;;;;;;;;;12635071;23;20086;-73
2023/10/25 19:11:54;;;;;;;28.88;25.83;;;;;;;;;;12635529;23;20039;-72
2023/10/25 19:22:28;;;;;;;26.58;23.90;;;;;;;;;;12632830;23;20071;-72
2023/10/25 19:33:27;;;;;;;23.83;21.50;;;;;;;;;;12628404;23;20036;-72
2023/10/25 19:38:23;;;;;;;25.65;23.10;;;;;;;;;;12635044;23;20156;-72
2023/10/25 19:43:22;;;;;;;26.38;23.75;;;;;;;;;;12634780;23;20566;-72
2023/10/25 19:54:52;;;;;;;21.95;19.60;;;;;;;;;;12138625;23;20036;-73
2023/10/25 20:06:07;;;;;;;22.65;20.50;;;;;;;;;;12586645;23;20466;-73
2023/10/25 20:11:04;;;;;;;25.17;22.70;;;;;;;;;;12633336;23;20366;-72
2023/10/25 20:21:37;;;;;;;23.35;21.08;;;;;;;;;;12619968;22;20048;-72
2023/10/25 20:26:33;;;;;;;23.58;21.17;;;;;;;;;;12611681;23;20489;-73
2023/10/25 20:31:31;;;;;;;19.63;17.60;;;;;;;;;;12631961;23;20083;-70
2023/10/25 20:36:28;;;;;;;23.83;21.45;;;;;;;;;;12637993;23;20028;-69
2023/10/25 20:41:26;;;;;;;26.63;23.85;;;;;;;;;;12637958;23;20028;-70
2023/10/25 20:46:22;;;;;;;24.45;22.05;;;;;;;;;;12639300;23;20028;-70
2023/10/25 20:51:22;;;;;;;26.30;23.75;;;;;;;;;;12637351;23;20028;-69
2023/10/25 20:56:19;;;;;;;27.33;24.50;;;;;;;;;;12637564;23;20458;-69
2023/10/25 21:01:15;;;;;;;27.70;23.98;;;;;;;;;;12631593;23;20227;-69
2023/10/25 21:06:12;;;;;;;25.83;23.20;;;;;;;;;;12634536;23;20024;-69
2023/10/25 21:11:09;;;;;;;24.05;21.85;;;;;;;;;;12637378;23;20514;-70
2023/10/25 21:16:11;;;;;;;23.83;21.42;;;;;;;;;;12636510;23;20113;-69
2023/10/25 21:21:08;;;;;;;25.52;22.90;;;;;;;;;;12638573;23;20586;-70
2023/10/25 21:26:05;;;;;;;23.60;21.08;;;;;;;;;;12637216;23;20020;-70
2023/10/25 21:31:05;;;;;;;24.13;20.15;;;;;;;;;;12636728;23;20471;-68
2023/10/25 21:36:02;;;;;;;21.48;19.35;;;;;;;;;;12638427;23;20578;-69
2023/10/25 21:40:59;;;;;;;23.48;20.45;;;;;;;;;;12638078;23;20091;-69
2023/10/25 21:45:56;;;;;;;21.75;19.60;;;;;;;;;;12636765;23;20047;-69
2023/10/25 21:50:59;;;;;;;21.10;18.88;;;;;;;;;;12638155;23;20032;-69
2023/10/25 21:55:56;;;;;;;21.17;18.30;;;;;;;;;;12637503;23;20027;-69
2023/10/25 22:01:13;;;;;;;21.02;18.05;;;;;;;;;;12636951;23;20020;-70
2023/10/25 22:06:09;;;;;;;19.25;17.25;;;;;;;;;;12631126;23;21017;-69
2023/10/25 22:11:05;;;;;;;20.33;17.58;;;;;;;;;;12636874;23;20534;-69
2023/10/25 22:16:02;;;;;;;18.88;16.02;;;;;;;;;;12637523;23;20034;-69
2023/10/25 22:20:58;;;;;;;17.30;15.50;;;;;;;;;;12637426;23;20024;-69
2023/10/25 22:25:54;;;;;;;26.02;18.05;;;;;;;;;;12637842;23;20044;-69
2023/10/25 22:30:51;;;;;;;18.73;16.73;;;;;;;;;;12636238;23;20127;-68
2023/10/25 22:35:47;;;;;;;19.75;17.52;;;;;;;;;;12637370;23;20025;-69
2023/10/25 22:40:44;;;;;;;19.50;17.48;;;;;;;;;;12635364;23;20024;-69
2023/10/25 22:45:40;;;;;;;19.48;16.75;;;;;;;;;;12637132;23;20020;-69
2023/10/25 22:50:36;;;;;;;19.45;16.42;;;;;;;;;;12635953;23;20017;-68
2023/10/25 22:55:36;;;;;;;18.88;16.95;;;;;;;;;;12635715;23;20025;-69
2023/10/25 23:00:32;;;;;;;21.33;15.95;;;;;;;;;;12635338;23;20036;-69
2023/10/25 23:05:28;;;;;;;17.80;16.05;;;;;;;;;;12636060;23;20028;-68
2023/10/25 23:10:25;;;;;;;15.82;14.32;;;;;;;;;;12631758;23;20020;-67
2023/10/25 23:15:21;;;;;;;18.70;15.68;;;;;;;;;;12635090;23;20470;-68
2023/10/25 23:20:18;;;;;;;20.30;14.82;;;;;;;;;;12635843;23;20025;-68
2023/10/25 23:25:14;;;;;;;17.27;15.68;;;;;;;;;;12635080;23;20079;-69
2023/10/25 23:30:10;;;;;;;17.73;15.82;;;;;;;;;;12636379;23;20017;-69
2023/10/25 23:35:07;;;;;;;17.15;14.93;;;;;;;;;;12634996;23;20610;-69
2023/10/25 23:40:04;;;;;;;14.93;13.45;;;;;;;;;;12635072;23;20024;-68
2023/10/25 23:45:00;;;;;;;16.63;14.85;;;;;;;;;;12636109;23;20335;-68
2023/10/25 23:49:56;;;;;;;17.20;15.60;;;;;;;;;;12635226;23;20024;-69
2023/10/25 23:54:53;;;;;;;23.25;15.43;;;;;;;;;;12634835;23;20108;-68
2023/10/25 23:59:51;;;;;;;17.45;15.55;;;;;;;;;;12635292;23;20092;-69
